METAR stanice u blizini

 

LYBE - Beograd / Surčin, Srbija
Ažurirano: 17/10/2019 18:00
Vedro
Vedro
 Pravac vetra SSI
Vetar: SSI 6 km/h
Temperatura: 22°C
Tačka rose: 11°C
Vlažnost: 50%
Pritisak: 1017 hPa
Pregled: Vedro
Vidljivost: greater than 10 km
2019/10/17 16:00 LYBE 171600Z 03003KT CAVOK 22/11 Q1017 NOSIG
LYBT - Beograd / Batajnica, Srbija
Ažurirano: 17/10/2019 18:00
Vedro
Vedro
 Pravac vetra S
Vetar: S 6 km/h
Temperatura: 20°C
Tačka rose: 13°C
Vlažnost: 64%
Pritisak: 1017 hPa
Pregled: Vedro
Vidljivost: greater than 10 km
2019/10/17 16:00 LYBT 171600Z 35003KT CAVOK 20/13 Q1017 NOSIG
LYVR - Vršac, Srbija
Ažurirano: 17/10/2019 18:00
Vedro
Vedro
 Pravac vetra varies
Vetar: varies 4 km/h
Temperatura: 20°C
Tačka rose: 8°C
Vlažnost: 46%
Pritisak: 1017 hPa
Pregled: Vedro
Vidljivost: greater than 10 km
2019/10/17 16:00 LYVR 171600Z VRB02KT CAVOK 20/08 Q1017 NOSIG
 
LYKV - Lađevci, Srbija
Ažurirano: 17/10/2019 18:00
Vedro
Vedro
 Pravac vetra varies
Vetar: varies 2 km/h
Temperatura: 23°C
Tačka rose: 9°C
Vlažnost: 41%
Pritisak: 1017 hPa
Pregled: Vedro
Vidljivost: greater than 10 km
2019/10/17 16:00 LYKV 171600Z VRB01KT CAVOK 23/09 Q1017 NOSIG
LYNI - Niš, Srbija
Ažurirano: 17/10/2019 18:00
Vedro
Vedro
 Pravac vetra varies
Vetar: varies 2 km/h
Temperatura: 22°C
Tačka rose: 8°C
Vlažnost: 41%
Pritisak: 1017 hPa
Pregled: Vedro
Vidljivost: greater than 10 km
2019/10/17 16:00 LYNI 171600Z VRB01KT CAVOK 22/08 Q1017 NOSIG
BKPR - Priština, Srbija
Ažurirano: 17/10/2019 18:00
Vedro
Vedro
 Pravac vetra ZSZ
Vetar: ZSZ 13 km/h
Temperatura: 20°C
Tačka rose: 9°C
Vlažnost: 49%
Pritisak: 1018 hPa
Pregled: Vedro
Vidljivost: greater than 10 km
2019/10/17 16:00 BKPR 171600Z 29007KT CAVOK 20/09 Q1018 NOSIG
 
LHPP - Pecs / Pogany, Hungary
Ažurirano: 17/10/2019 17:45
Few Clouds
Few Clouds
 Pravac vetra J
Vetar: J 4 km/h
Temperatura: 19°C
Tačka rose: 13°C
Vlažnost: 68%
Pritisak: 1018 hPa
Oblaci: Few Clouds
Vidljivost: 10 km
Cloud details: Few Clouds 1219 m
2019/10/17 15:45 LHPP 171545Z 18002KT 9999 FEW040 19/13 Q1018
LHUD - Szeged, Hungary
Ažurirano: 04/07/2019 01:45
NOT Current
Vedro
Vedro
 Pravac vetra S
Vetar: S 7 km/h
Temperatura: 18°C
Tačka rose: 13°C
Vlažnost: 73%
Pritisak: 1019 hPa
Pregled: Vedro
Vidljivost: greater than 10 km
2019/07/03 23:45 LHUD 032345Z 35004KT CAVOK 18/13 Q1019
LRTR - Timisoara, Romania
Ažurirano: 17/10/2019 18:00
Partly Cloudy
Partly Cloudy
 Pravac vetra ZSZ
Vetar: ZSZ 9 km/h
Temperatura: 20°C
Tačka rose: 10°C
Vlažnost: 53%
Pritisak: 1017 hPa
Oblaci: Partly Cloudy
Vidljivost: 8 km
2019/10/17 16:00 LRTR 171600Z 30005KT 8000 NSC 20/10 Q1017 TEMPO 5000 BR
 
LRCV - Craiova, Romania
Ažurirano: 17/10/2019 18:00
Vedro
Vedro
 Pravac vetra J
Vetar: J 4 km/h
Temperatura: 20°C
Tačka rose: 10°C
Vlažnost: 53%
Pritisak: 1017 hPa
Pregled: Vedro
Vidljivost: greater than 10 km
2019/10/17 16:00 LRCV 171600Z 19002KT CAVOK 20/10 Q1017
LBSF - Sofia, Bulgaria
Ažurirano: 17/10/2019 18:00
Vedro
Vedro
 Pravac vetra I
Vetar: I 11 km/h
Temperatura: 20°C
Tačka rose: 8°C
Vlažnost: 46%
Pritisak: 1018 hPa
Pregled: Vedro
Vidljivost: greater than 10 km
2019/10/17 16:00 LBSF 171600Z 08006KT 060V120 CAVOK 20/08 Q1018 NOSIG
LWSK - Skoplje, Makedonija
Ažurirano: 17/10/2019 18:00
Vedro
Vedro
 Pravac vetra IJI
Vetar: IJI 4 km/h
Temperatura: 21°C
Tačka rose: 8°C
Vlažnost: 43%
Pritisak: 1017 hPa
Pregled: Vedro
Vidljivost: greater than 10 km
2019/10/17 16:00 LWSK 171600Z 11002KT CAVOK 21/08 Q1017 NOSIG
 
LYPG - Podgorica, Crna Gora
Ažurirano: 17/10/2019 18:00
Few Clouds
Few Clouds
 Pravac vetra JI
Vetar: JI 4 km/h
Temperatura: 21°C
Tačka rose: 13°C
Vlažnost: 60%
Pritisak: 1017 hPa
Oblaci: Few Clouds
Vidljivost: 10 km
Cloud details: Few Clouds 1219 m
2019/10/17 16:00 LYPG 171600Z 13002KT 9999 FEW040 21/13 Q1017 NOSIG
LQSA - Sarajevo, Bosna i Hercegovina
Ažurirano: 17/10/2019 18:00
Few Clouds
Few Clouds
 Pravac vetra JJI
Vetar: JJI 6 km/h
Temperatura: 18°C
Tačka rose: 12°C
Vlažnost: 68%
Pritisak: 1018 hPa
Oblaci: Few Clouds
Vidljivost: 10 km
Cloud details: Few Clouds 1829 m
2019/10/17 16:00 LQSA 171600Z 15003KT 120V200 9999 FEW060 18/12 Q1018 NOSIG
LDOS - Osijek, Hrvatksa
Ažurirano: 17/10/2019 18:00
Vedro
Vedro
 Pravac vetra SSI
Vetar: SSI 7 km/h
Temperatura: 20°C
Tačka rose: 13°C
Vlažnost: 64%
Pritisak: 1017 hPa
Pregled: Vedro
Vidljivost: greater than 10 km
2019/10/17 16:00 LDOS 171600Z 02004KT CAVOK 20/13 Q1017